Latest Weather Observations for Red Rocks Point

IDW60801

Issued at 1:35 pm WST Friday 19 September 2014 (issued every 30 minutes, with the page automatically refreshed every 10 minutes)

About weather observations | Map of weather stations | Latest weather observations for WA | Other Formats
Station Details ID: 011053 Name: RED ROCKS POINT Lat: -32.20 Lon: 127.53 Height: 3.1 m
Data from the previous 72 hours. | See also: Recent months for locations in Western Australia
Date/Time
WST
Temp
°C
App
Temp
°C
Dew
Point
Rel
Hum
%
Delta-T
°C
Wind Press
QNH
hPa
Press
MSL
hPa
Rain
since 9 am
mm
Dir
 
Spd
km/h
Gust
km/h
Spd
kts
Gust
kts
19/01:30pm 18.3 14.2 12.7 70 3.1 ESE 26 30 14 16 1018.8 - 0.0
19/01:00pm 18.3 14.7 13.0 71 3.0 E 24 26 13 14 1018.7 - 0.0
19/12:30pm 18.3 15.1 13.0 71 3.0 ESE 22 26 12 14 1018.9 - 0.0
19/12:00pm 18.0 14.6 12.5 70 3.0 E 22 26 12 14 1019.1 1019.1 0.0
19/11:30am 18.1 15.0 12.3 69 3.2 E 20 24 11 13 1019.3 - 0.0
19/11:00am 17.9 13.9 11.9 68 3.3 E 24 28 13 15 1019.4 - 0.0
19/10:30am 17.8 13.6 12.5 71 2.9 E 26 30 14 16 1019.4 - 0.0
19/10:00am 17.2 13.0 11.0 67 3.3 E 24 28 13 15 1020.0 - 0.0
19/09:30am 16.5 12.5 10.4 67 3.2 E 22 26 12 14 1020.7 - 0.0
19/09:00am 15.8 11.6 9.7 67 3.2 E 22 24 12 13 1021.1 1021.1 0.0
19/08:30am 15.8 12.0 9.7 67 3.2 E 20 24 11 13 1021.2 - 0.0
19/08:00am 14.7 10.7 8.9 68 2.9 ENE 20 22 11 12 1021.3 - 0.0
19/07:30am 13.9 9.7 8.3 69 2.8 ENE 20 24 11 13 1021.4 - 0.0
19/07:00am 12.7 8.5 8.2 74 2.2 ENE 20 24 11 13 1021.2 - 0.0
19/06:30am 11.1 7.3 7.6 79 1.7 NE 17 22 9 12 1021.1 - 0.0
19/06:00am 10.4 6.6 7.5 82 1.4 NE 17 20 9 11 1020.9 1020.9 0.0
19/05:30am 10.5 6.7 7.7 83 1.3 NE 17 20 9 11 1020.8 - 0.0
19/05:00am 10.8 6.7 8.0 83 1.4 NE 19 22 10 12 1020.5 - 0.0
19/04:30am 11.0 7.0 8.2 83 1.4 NE 19 24 10 13 1020.5 - 0.0
19/04:00am 11.7 7.4 9.3 85 1.2 NE 22 26 12 14 1020.1 - 0.0
19/03:30am 11.8 8.3 10.2 90 0.8 NE 19 26 10 14 1019.6 - 0.0
19/03:00am 11.6 8.8 9.9 89 0.9 NE 15 20 8 11 1019.8 1019.8 0.0
19/02:30am 12.0 8.5 10.1 88 1.0 NE 19 24 10 13 1019.7 - 0.0
19/02:00am 12.1 8.6 10.2 88 1.0 NE 19 24 10 13 1019.8 - 0.0
19/01:30am 11.9 8.7 10.0 88 1.0 NE 17 20 9 11 1020.0 - 0.0
19/01:00am 12.1 8.9 9.8 86 1.2 NE 17 22 9 12 1020.1 - 0.0
19/12:30am 12.9 9.2 10.3 84 1.3 NE 20 28 11 15 1020.4 - 0.0
19/12:00am 13.1 9.4 10.3 83 1.4 NE 20 30 11 16 1020.5 1020.5 0.0
 
Date/Time
WST
Temp
°C
App
Temp
°C
Dew
Point
Rel
Hum
%
Delta-T
°C
Wind Press
QNH
hPa
Press
MSL
hPa
Rain
since 9 am
mm
Dir
 
Spd
km/h
Gust
km/h
Spd
kts
Gust
kts
18/11:30pm 13.5 9.5 10.5 82 1.6 NE 22 30 12 16 1020.7 - 0.0
18/11:00pm 14.0 9.7 10.6 80 1.8 NE 24 32 13 17 1020.9 - 0.0
18/10:30pm 15.3 8.5 12.1 81 1.7 ENE 39 48 21 26 1020.9 - 0.0
18/10:00pm 15.5 7.9 11.9 79 2.0 ENE 43 52 23 28 1021.1 - 0.0
18/09:30pm 15.5 8.1 12.4 82 1.7 E 43 48 23 26 1021.2 - 0.0
18/09:00pm 15.5 8.1 12.3 81 1.7 E 43 50 23 27 1021.2 1021.2 0.0
18/08:30pm 15.4 8.0 12.3 82 1.7 E 43 50 23 27 1021.5 - 0.0
18/08:00pm 15.5 8.1 12.6 83 1.6 E 43 50 23 27 1021.3 - 0.0
18/07:30pm 15.5 8.1 12.6 83 1.6 E 43 48 23 26 1021.3 - 0.0
18/07:00pm 15.6 8.2 12.4 81 1.8 E 43 50 23 27 1021.2 - 0.0
18/06:30pm 15.7 8.7 12.6 82 1.7 E 41 50 22 27 1021.1 - 0.0
18/06:00pm 15.6 8.5 12.2 80 1.8 E 41 46 22 25 1020.9 1020.9 0.0
18/05:30pm 15.6 8.9 12.2 80 1.9 E 39 46 21 25 1020.8 - 0.0
18/05:00pm 15.7 8.6 12.3 80 1.9 E 41 44 22 24 1020.8 - 0.0
18/04:30pm 15.9 9.5 12.1 78 2.1 E 37 44 20 24 1020.7 - 0.0
18/04:00pm 16.2 9.9 12.2 77 2.2 E 37 44 20 24 1020.6 - 0.0
18/03:30pm 16.5 10.2 12.3 76 2.3 E 37 43 20 23 1020.3 - 0.0
18/03:00pm 16.5 10.0 11.6 73 2.6 E 37 43 20 23 1020.4 1020.4 0.0
18/02:30pm 16.7 11.1 12.0 74 2.6 E 33 39 18 21 1020.5 - 0.0
18/02:00pm 16.8 10.7 11.9 73 2.7 E 35 43 19 23 1020.7 - 0.0
18/01:30pm 16.9 11.3 12.2 74 2.6 E 33 39 18 21 1020.7 - 0.0
18/01:00pm 16.7 10.8 12.3 75 2.4 E 35 41 19 22 1021.1 - 0.0
18/12:30pm 16.8 11.4 12.7 77 2.3 E 33 37 18 20 1021.6 - 0.0
18/12:00pm 17.0 12.1 12.5 75 2.5 E 30 33 16 18 1022.2 1022.2 0.0
18/11:30am 16.9 12.3 12.4 75 2.5 E 28 32 15 17 1022.6 - 0.0
18/11:00am 16.7 12.5 12.3 75 2.4 E 26 30 14 16 1022.9 - 0.0
18/10:30am 16.7 12.9 12.3 75 2.4 E 24 28 13 15 1023.2 - 0.0
18/10:00am 16.6 13.3 11.7 73 2.7 ENE 20 26 11 14 1023.6 - 0.0
18/09:30am 15.8 12.6 11.8 77 2.2 NE 20 28 11 15 1024.0 - 0.0
18/09:00am 14.6 12.0 12.1 85 1.3 ENE 17 20 9 11 1024.1 1024.1 3.0
18/08:30am 13.7 12.6 12.1 90 0.9 NE 9 17 5 9 1024.5 - 3.0
18/08:00am 13.0 10.3 11.7 92 0.7 N 17 22 9 12 1024.2 - 3.0
18/07:30am 12.8 10.5 11.9 94 0.5 NNE 15 20 8 11 1024.5 - 3.0
18/07:00am 12.6 11.0 11.7 94 0.5 NNE 11 17 6 9 1024.5 - 3.0
18/06:30am 12.7 13.1 11.4 92 0.7 CALM 0 0 0 0 1024.7 - 2.8
18/06:00am 12.6 10.2 11.5 93 0.6 N 15 22 8 12 1023.5 1023.5 2.8
18/05:30am 12.8 10.8 11.5 92 0.7 NNE 13 22 7 12 1023.2 - 2.8
18/05:00am 13.1 10.8 11.8 92 0.7 NNE 15 20 8 11 1023.1 - 2.6
18/04:30am 13.2 10.5 11.8 91 0.7 NNE 17 20 9 11 1023.3 - 1.6
18/04:00am 13.7 12.1 11.7 88 1.1 NNE 11 15 6 8 1024.3 - 0.6
18/03:30am 15.0 10.7 12.0 82 1.6 ENE 26 30 14 16 1023.6 - 0.0
18/03:00am 15.2 10.4 11.8 80 1.8 E 28 32 15 17 1023.4 1023.4 0.0
18/02:30am 15.4 10.3 12.0 80 1.8 ESE 30 33 16 18 1023.3 - 0.0
18/02:00am 15.3 10.5 11.7 79 1.9 E 28 33 15 18 1023.5 - 0.0
18/01:30am 15.3 9.6 11.7 79 1.9 E 33 39 18 21 1022.5 - 0.0
18/01:00am 15.3 9.7 11.5 78 2.0 E 32 37 17 20 1023.0 - 0.0
18/12:30am 15.3 10.1 11.5 78 2.0 E 30 35 16 19 1023.3 - 0.0
18/12:00am 15.4 10.3 11.8 79 1.9 E 30 35 16 19 1023.8 1023.8 0.0
 
Date/Time
WST
Temp
°C
App
Temp
°C
Dew
Point
Rel
Hum
%
Delta-T
°C
Wind Press
QNH
hPa
Press
MSL
hPa
Rain
since 9 am
mm
Dir
 
Spd
km/h
Gust
km/h
Spd
kts
Gust
kts
17/11:30pm 15.3 10.3 11.1 76 2.2 E 28 35 15 19 1023.9 - 0.0
17/11:00pm 15.4 9.8 11.6 78 2.0 E 32 37 17 20 1023.5 - 0.0
17/10:30pm 15.3 8.7 11.5 78 2.0 E 37 43 20 23 1022.9 - 0.0
17/10:00pm 15.3 8.3 11.1 76 2.2 ENE 39 44 21 24 1022.8 - 0.0
17/09:30pm 15.3 9.4 11.3 77 2.1 E 33 39 18 21 1023.7 - 0.0
17/09:00pm 15.3 9.6 11.3 77 2.1 E 32 37 17 20 1024.1 1024.1 0.0
17/08:30pm 15.2 8.9 11.0 76 2.2 E 35 41 19 22 1023.9 - 0.0
17/08:00pm 15.2 9.3 11.2 77 2.1 E 33 41 18 22 1024.0 - 0.0
17/07:30pm 15.3 9.4 11.3 77 2.1 E 33 37 18 20 1024.0 - 0.0
17/07:00pm 15.3 9.6 11.3 77 2.1 E 32 35 17 19 1023.9 - 0.0
17/06:30pm 15.2 9.5 11.0 76 2.2 E 32 35 17 19 1023.6 - 0.0
17/06:00pm 15.3 10.0 11.1 76 2.2 E 30 35 16 19 1023.3 1023.3 0.0
17/05:30pm 15.2 9.3 10.6 74 2.4 E 32 35 17 19 1023.1 - 0.0
17/05:00pm 15.6 10.0 11.4 76 2.3 E 32 37 17 20 1022.8 - 0.0
17/04:30pm 15.8 9.6 11.4 75 2.4 E 35 39 19 21 1022.7 - 0.0
17/04:00pm 16.0 10.3 11.0 72 2.7 E 32 37 17 20 1022.6 - 0.0
17/03:30pm 16.1 10.0 10.6 70 2.9 E 33 39 18 21 1022.3 - 0.0
17/03:00pm 16.6 11.3 11.3 71 2.8 E 30 35 16 19 1022.2 1022.2 0.0
17/02:30pm 16.6 10.8 10.7 68 3.1 E 32 35 17 19 1022.3 - 0.0
17/02:00pm 16.9 11.2 11.0 68 3.2 E 32 35 17 19 1022.2 - 0.0
17/01:30pm 17.2 11.5 11.0 67 3.3 E 32 37 17 20 1022.3 - 0.0
17/01:00pm 16.8 10.3 10.4 66 3.4 E 35 41 19 22 1022.3 - 0.0
17/12:30pm 16.8 10.9 11.1 69 3.1 E 33 39 18 21 1022.5 - 0.0
17/12:00pm 16.7 10.6 10.5 67 3.3 E 33 39 18 21 1022.7 1022.7 0.0
17/11:30am 17.0 11.2 10.8 67 3.3 E 32 37 17 20 1023.0 - 0.0
17/11:00am 16.8 10.9 10.6 67 3.3 E 32 37 17 20 1023.3 - 0.0
17/10:30am 16.8 10.8 10.2 65 3.5 E 32 35 17 19 1023.7 - 0.0
17/10:00am 16.5 11.1 9.4 63 3.7 E 28 32 15 17 1024.1 - 0.0
17/09:30am 16.3 10.8 9.0 62 3.8 E 28 33 15 18 1024.4 - 0.0
17/09:00am 16.4 11.3 9.1 62 3.7 E 26 30 14 16 1024.6 1024.6 0.0
17/08:30am 16.0 10.6 8.0 59 4.0 ENE 26 32 14 17 1024.6 - 0.0
17/08:00am 15.5 11.9 8.5 63 3.5 NE 17 26 9 14 1024.7 - 0.0
17/07:30am 13.8 10.3 7.1 64 3.3 NNE 15 20 8 11 1024.6 - 0.0
17/07:00am 12.2 8.2 6.5 68 2.7 NNE 17 22 9 12 1024.3 - 0.0
17/06:30am 10.4 6.3 6.0 74 2.0 N 17 22 9 12 1023.9 - 0.0
17/06:00am 9.1 4.9 5.5 78 1.6 NNE 17 20 9 11 1023.6 1023.6 0.0
17/05:30am 8.3 4.0 5.1 80 1.4 NNE 17 20 9 11 1023.4 - 0.0
17/05:00am 7.7 3.3 4.7 81 1.3 N 17 20 9 11 1023.3 - 0.0
17/04:30am 8.1 3.7 4.9 80 1.4 N 17 24 9 13 1022.9 - 0.0
17/04:00am 9.2 5.7 5.4 77 1.7 NNE 13 17 7 9 1022.7 - 0.0
17/03:30am 11.2 7.6 6.7 74 2.1 NE 15 24 8 13 1022.2 - 0.0
17/03:00am 11.7 8.1 6.6 71 2.4 NE 15 20 8 11 1022.1 1022.1 0.0
17/02:30am 13.9 8.2 8.3 69 2.8 E 28 33 15 18 1022.0 - 0.0
17/02:00am 13.9 8.1 7.9 67 3.0 E 28 32 15 17 1022.0 - 0.0
17/01:30am 14.0 8.2 8.0 67 3.0 E 28 33 15 18 1022.1 - 0.0
17/01:00am 13.9 8.5 8.1 68 2.9 E 26 32 14 17 1022.5 - 0.0
17/12:30am 14.0 8.6 7.8 66 3.1 E 26 32 14 17 1022.7 - 0.0
17/12:00am 14.2 8.5 8.2 67 3.0 E 28 32 15 17 1022.8 1022.8 0.0
 
Date/Time
WST
Temp
°C
App
Temp
°C
Dew
Point
Rel
Hum
%
Delta-T
°C
Wind Press
QNH
hPa
Press
MSL
hPa
Rain
since 9 am
mm
Dir
 
Spd
km/h
Gust
km/h
Spd
kts
Gust
kts
16/11:30pm 14.2 8.8 8.2 67 3.0 ESE 26 30 14 16 1023.1 - 0.0
16/11:00pm 14.3 9.1 8.7 69 2.8 E 26 32 14 17 1023.3 - 0.0
16/10:30pm 14.3 9.1 8.7 69 2.8 ESE 26 32 14 17 1023.6 - 0.0
16/10:00pm 14.3 9.5 8.7 69 2.8 ESE 24 28 13 15 1023.8 - 0.0
16/09:30pm 14.3 9.5 8.9 70 2.7 ESE 24 28 13 15 1024.1 - 0.0
16/09:00pm 14.3 9.8 8.5 68 2.9 ESE 22 28 12 15 1024.1 1024.1 0.0
16/08:30pm 14.3 9.8 8.5 68 2.9 ESE 22 28 12 15 1024.0 - 0.0
16/08:00pm 14.4 9.9 8.6 68 2.9 ESE 22 26 12 14 1023.8 - 0.0
16/07:30pm 14.4 10.3 8.8 69 2.8 ESE 20 24 11 13 1023.7 - 0.0
16/07:00pm 14.4 10.4 8.4 67 3.0 SE 19 22 10 12 1023.8 - 0.0
16/06:30pm 14.5 10.3 8.2 66 3.2 SE 20 26 11 14 1023.7 - 0.0
16/06:00pm 14.6 10.2 8.8 68 2.9 SE 22 26 12 14 1023.5 1023.5 0.0
16/05:30pm 14.6 10.7 8.8 68 2.9 SE 19 22 10 12 1023.2 - 0.0
16/05:00pm 14.9 11.0 9.5 70 2.8 SE 20 28 11 15 1022.9 - 0.0
16/04:30pm 15.4 11.0 8.9 65 3.3 SSE 22 26 12 14 1022.5 - 0.0
16/04:00pm 15.8 11.4 8.8 63 3.6 S 22 28 12 15 1022.3 - 0.0
16/03:30pm 16.1 12.2 9.3 64 3.5 S 20 26 11 14 1022.5 - 0.0
16/03:00pm 16.2 11.9 9.2 63 3.6 S 22 26 12 14 1022.1 1022.1 0.0
16/02:30pm 16.5 12.8 9.4 63 3.7 S 19 24 10 13 1022.2 - 0.0
16/02:00pm 17.6 14.0 10.5 63 3.8 S 20 24 11 13 1022.3 - 0.0

Other Formats:

Comma delimited format used in spreadsheet applications
http://www.bom.gov.au/fwo/IDW60801/IDW60801.94644.axf

JavaScript Object Notation format (JSON) in row-major order
http://www.bom.gov.au/fwo/IDW60801/IDW60801.94644.json